Time;durP1;ratioP1;P1;durP2;ratioP2;P2;SDS_P1;SDS_P2;PMS_P1;PMS_P2;Temp;Humidity;BMP_temperature;BMP_pressure;BME280_temperature;BME280_humidity;BME280_pressure;Samples;Min_cycle;Max_cycle;Signal;HPM_P1;HPM_P2
2023/01/09 00:02:06;;;;;;;26.92;14.63;;;;;;;3.13;98.59;94654.78;5035129;28;20049;-78
2023/01/09 00:04:33;;;;;;;27.80;15.65;;;;;;;3.12;97.92;94653.19;5039432;28;20051;-78
2023/01/09 00:06:59;;;;;;;29.48;15.43;;;;;;;3.11;97.94;94656.97;5045684;28;20052;-79
2023/01/09 00:09:26;;;;;;;31.40;14.93;;;;;;;3.01;97.94;94648.41;5042210;28;20052;-79
2023/01/09 00:11:53;;;;;;;29.70;15.70;;;;;;;3.06;97.99;94656.31;5036369;28;20469;-78
2023/01/09 00:14:21;;;;;;;29.00;15.60;;;;;;;3.12;97.89;94652.38;5037265;28;20045;-78
2023/01/09 00:16:48;;;;;;;27.73;14.48;;;;;;;3.16;97.68;94663.31;5033178;28;20073;-79
2023/01/09 00:19:17;;;;;;;28.83;15.07;;;;;;;3.18;97.45;94661.91;5048848;28;20056;-77
2023/01/09 00:21:44;;;;;;;25.48;14.73;;;;;;;3.20;97.11;94665.09;5047360;28;20488;-78
2023/01/09 00:24:10;;;;;;;26.00;14.60;;;;;;;3.21;97.30;94660.50;5034410;28;20566;-78
2023/01/09 00:26:37;;;;;;;28.02;14.38;;;;;;;3.24;96.93;94659.88;5046868;28;20050;-78
2023/01/09 00:29:04;;;;;;;27.98;15.77;;;;;;;3.22;96.96;94668.25;5040855;28;20069;-79
2023/01/09 00:31:30;;;;;;;25.65;13.63;;;;;;;3.26;97.15;94679.97;5044626;28;20045;-78
2023/01/09 00:34:00;;;;;;;28.15;14.88;;;;;;;3.30;96.40;94675.56;5035816;28;20045;-77
2023/01/09 00:36:28;;;;;;;29.40;14.65;;;;;;;3.28;96.16;94680.44;5029057;28;20044;-78
2023/01/09 00:38:55;;;;;;;29.98;15.25;;;;;;;3.27;95.91;94686.13;5036500;28;20049;-78
2023/01/09 00:41:25;;;;;;;28.40;15.18;;;;;;;3.29;95.67;94687.44;5037995;28;20053;-78
2023/01/09 00:43:56;;;;;;;27.63;14.60;;;;;;;3.25;95.60;94691.84;5036012;28;20049;-78
2023/01/09 00:46:29;;;;;;;30.88;15.27;;;;;;;3.23;95.77;94695.94;5035007;28;20056;-79
2023/01/09 00:48:55;;;;;;;30.35;16.23;;;;;;;3.15;95.80;94705.56;5037353;28;20050;-78
2023/01/09 00:51:23;;;;;;;32.38;16.10;;;;;;;3.04;96.76;94709.63;5041542;28;20053;-79
2023/01/09 00:53:54;;;;;;;29.83;15.77;;;;;;;3.00;97.70;94714.03;5042329;28;20050;-79
2023/01/09 00:56:22;;;;;;;31.55;15.70;;;;;;;2.90;97.93;94720.47;5047750;28;20218;-79
2023/01/09 00:58:49;;;;;;;28.20;15.45;;;;;;;2.82;98.97;94718.56;5042182;28;20052;-79
2023/01/09 01:01:19;;;;;;;34.53;16.15;;;;;;;2.80;99.50;94713.47;5050631;28;20403;-79
2023/01/09 01:03:45;;;;;;;27.10;14.80;;;;;;;2.76;99.95;94720.56;5048990;28;20048;-78
2023/01/09 01:08:54;;;;;;;28.45;15.15;;;;;;;2.94;99.10;94717.97;5020560;28;20068;-78
2023/01/09 01:11:21;;;;;;;28.92;15.60;;;;;;;3.03;99.16;94719.59;5032713;28;20072;-78
2023/01/09 01:13:48;;;;;;;28.27;15.48;;;;;;;2.96;99.68;94708.47;5039890;28;20056;-79
2023/01/09 01:16:14;;;;;;;29.23;15.27;;;;;;;3.06;99.26;94708.22;5033860;28;20054;-78
2023/01/09 01:18:41;;;;;;;28.50;14.90;;;;;;;3.14;98.85;94699.41;5029286;28;20049;-79
2023/01/09 01:21:09;;;;;;;31.00;15.90;;;;;;;3.12;98.72;94703.50;5031231;28;20049;-79
2023/01/09 01:23:36;;;;;;;29.55;15.35;;;;;;;3.19;98.69;94701.16;5039732;28;20049;-78
2023/01/09 01:26:08;;;;;;;32.88;15.88;;;;;;;3.17;98.39;94691.81;5029441;28;20052;-77
2023/01/09 01:28:35;;;;;;;30.80;15.53;;;;;;;3.22;98.58;94705.91;5034378;28;20432;-78
2023/01/09 01:31:01;;;;;;;27.52;14.65;;;;;;;3.26;98.16;94700.69;5035204;28;20295;-77
2023/01/09 01:33:28;;;;;;;30.75;14.75;;;;;;;3.29;97.59;94684.75;5032138;28;20041;-78
2023/01/09 01:36:06;;;;;;;30.08;15.57;;;;;;;3.30;97.12;94689.00;5040344;28;20050;-78
2023/01/09 01:38:33;;;;;;;27.73;14.30;;;;;;;3.27;97.53;94691.53;5037400;28;20041;-77
2023/01/09 01:41:01;;;;;;;29.63;14.68;;;;;;;3.28;97.35;94693.88;5037656;28;20049;-78
2023/01/09 01:43:48;;;;;;;30.35;15.10;;;;;;;3.26;97.43;94685.34;5038368;28;20127;-78
2023/01/09 01:46:16;;;;;;;30.63;15.50;;;;;;;3.27;97.44;94684.25;5045359;28;20048;-78
2023/01/09 01:48:45;;;;;;;26.83;13.95;;;;;;;3.31;97.32;94682.50;5049848;28;20727;-79
2023/01/09 01:51:15;;;;;;;30.02;16.15;;;;;;;3.19;97.63;94690.41;5040675;28;20076;-78
2023/01/09 01:53:44;;;;;;;27.80;14.93;;;;;;;3.29;97.49;94690.13;5031590;28;20053;-79
2023/01/09 01:56:16;;;;;;;28.63;14.70;;;;;;;3.36;97.06;94685.06;5045728;28;20117;-78
2023/01/09 01:58:48;;;;;;;31.52;15.07;;;;;;;3.37;96.89;94670.50;5038408;28;20045;-78
2023/01/09 02:01:17;;;;;;;27.45;14.48;;;;;;;3.39;97.44;94662.94;5039750;28;20045;-78
2023/01/09 02:03:45;;;;;;;25.50;13.93;;;;;;;3.47;97.26;94668.63;5041302;28;20049;-78
2023/01/09 02:06:12;;;;;;;27.25;13.57;;;;;;;3.49;97.06;94672.56;5041963;28;20049;-78
2023/01/09 02:08:39;;;;;;;26.15;13.52;;;;;;;3.51;96.88;94664.22;5046869;28;20045;-78
2023/01/09 02:11:06;;;;;;;26.85;14.63;;;;;;;3.50;97.19;94662.59;5055320;28;20047;-78
2023/01/09 02:13:34;;;;;;;25.73;13.77;;;;;;;3.52;97.25;94671.16;5040843;28;20045;-78
2023/01/09 02:16:15;;;;;;;26.25;14.50;;;;;;;3.46;97.09;94680.50;5051694;28;20520;-78
2023/01/09 02:18:51;;;;;;;28.00;14.40;;;;;;;3.46;97.07;94678.59;5060311;28;20047;-78
2023/01/09 02:21:27;;;;;;;28.58;14.93;;;;;;;3.52;96.75;94679.25;5057788;28;20053;-79
2023/01/09 02:24:28;;;;;;;26.75;14.65;;;;;;;3.49;96.53;94666.41;5057070;28;20050;-78
2023/01/09 02:27:39;;;;;;;24.35;13.60;;;;;;;3.48;96.85;94660.22;5050577;28;20049;-79
2023/01/09 02:30:29;;;;;;;26.95;14.32;;;;;;;3.44;97.11;94653.09;5033092;28;20046;-78
2023/01/09 02:33:05;;;;;;;29.17;14.13;;;;;;;3.25;97.43;94675.69;5046422;28;20052;-78
2023/01/09 02:35:49;;;;;;;25.98;14.93;;;;;;;3.17;98.68;94681.03;5052256;28;20045;-79
2023/01/09 02:38:23;;;;;;;26.95;14.80;;;;;;;3.07;99.65;94671.34;5045988;28;20042;-78
2023/01/09 02:40:59;;;;;;;25.33;13.70;;;;;;;3.08;100.00;94676.44;5041786;28;20048;-78
2023/01/09 02:43:26;;;;;;;28.20;15.38;;;;;;;3.04;100.00;94667.41;5041452;28;20045;-78
2023/01/09 02:45:57;;;;;;;31.70;16.45;;;;;;;2.92;100.00;94680.63;5042170;28;20080;-78
2023/01/09 02:48:23;;;;;;;30.02;14.77;;;;;;;3.01;100.00;94677.97;5032849;28;20103;-78
2023/01/09 02:51:01;;;;;;;26.80;14.25;;;;;;;3.11;100.00;94667.72;5042657;28;20052;-79
2023/01/09 02:53:48;;;;;;;28.92;14.70;;;;;;;3.01;100.00;94672.59;5041470;28;20037;-78
2023/01/09 02:56:44;;;;;;;24.50;13.30;;;;;;;3.09;100.00;94674.53;5042349;28;20041;-79
2023/01/09 02:59:32;;;;;;;27.70;15.05;;;;;;;2.93;100.00;94670.69;5043214;28;20069;-79
2023/01/09 03:02:14;;;;;;;24.92;13.45;;;;;;;3.02;100.00;94666.91;5044129;28;20046;-79
2023/01/09 03:04:50;;;;;;;23.92;13.57;;;;;;;3.17;100.00;94675.66;5044138;28;20041;-78
2023/01/09 03:07:25;;;;;;;23.95;12.88;;;;;;;3.19;100.00;94671.56;5051999;28;20051;-78
2023/01/09 03:09:56;;;;;;;26.48;12.90;;;;;;;3.23;99.95;94675.19;5045655;28;20133;-80
2023/01/09 03:12:27;;;;;;;22.42;12.32;;;;;;;3.25;100.00;94673.00;5045809;28;20520;-78
2023/01/09 03:14:58;;;;;;;20.15;11.48;;;;;;;3.27;100.00;94676.16;5052274;28;20055;-78
2023/01/09 03:17:31;;;;;;;20.27;11.85;;;;;;;3.25;100.00;94675.69;5045080;28;20041;-79
2023/01/09 03:19:58;;;;;;;20.23;11.53;;;;;;;3.26;99.86;94671.09;5046217;28;20060;-79
2023/01/09 03:22:25;;;;;;;19.95;11.10;;;;;;;3.25;100.00;94673.00;5042124;28;20291;-79
2023/01/09 03:24:52;;;;;;;18.40;10.80;;;;;;;3.26;100.00;94668.41;5045735;28;20049;-78
2023/01/09 03:27:18;;;;;;;20.00;11.65;;;;;;;3.29;100.00;94665.91;5052384;28;20041;-78
2023/01/09 03:29:45;;;;;;;19.27;11.55;;;;;;;3.34;100.00;94665.75;5039773;28;20061;-78
2023/01/09 03:32:12;;;;;;;19.60;11.55;;;;;;;3.32;99.89;94661.78;5034444;28;20409;-79
2023/01/09 03:34:41;;;;;;;21.42;12.55;;;;;;;3.30;100.00;94664.78;5034443;28;20508;-79
2023/01/09 03:37:08;;;;;;;19.95;10.77;;;;;;;3.33;100.00;94669.53;5034703;28;20055;-78
2023/01/09 03:39:35;;;;;;;17.10;11.02;;;;;;;3.37;100.00;94667.00;5040956;28;20080;-79
2023/01/09 03:42:01;;;;;;;19.23;11.32;;;;;;;3.40;100.00;94659.13;5053311;28;20061;-79
2023/01/09 03:44:28;;;;;;;19.25;10.63;;;;;;;3.42;100.00;94666.09;5043201;28;20052;-78
2023/01/09 03:46:54;;;;;;;18.48;10.25;;;;;;;3.42;100.00;94658.00;5056002;28;20060;-79
2023/01/09 03:49:21;;;;;;;18.23;11.50;;;;;;;3.47;100.00;94657.84;5048452;28;20044;-78
2023/01/09 03:51:49;;;;;;;17.27;10.02;;;;;;;3.51;99.83;94664.22;5049800;28;20072;-78
2023/01/09 03:54:15;;;;;;;16.33;10.13;;;;;;;3.52;100.00;94650.44;5040078;28;20056;-79
2023/01/09 03:56:42;;;;;;;16.92;9.75;;;;;;;3.51;99.89;94648.06;5044293;28;20069;-78
2023/01/09 03:59:08;;;;;;;16.73;10.00;;;;;;;3.48;100.00;94662.13;5049265;28;20044;-79
2023/01/09 04:01:35;;;;;;;17.52;9.45;;;;;;;3.50;100.00;94651.84;5035588;28;20140;-79
2023/01/09 04:04:02;;;;;;;18.98;10.13;;;;;;;3.50;100.00;94655.34;5049718;28;20123;-78
2023/01/09 04:06:28;;;;;;;15.23;9.60;;;;;;;3.55;100.00;94660.56;5035604;28;20041;-79
2023/01/09 04:08:56;;;;;;;17.05;9.50;;;;;;;3.52;100.00;94653.13;5042682;28;20050;-78
2023/01/09 04:11:23;;;;;;;17.38;10.20;;;;;;;3.53;100.00;94653.91;5038437;28;20060;-78
2023/01/09 04:13:49;;;;;;;14.25;8.85;;;;;;;3.53;100.00;94656.59;5035202;28;20228;-79
2023/01/09 04:16:16;;;;;;;15.68;9.35;;;;;;;3.53;100.00;94656.59;5044627;28;20049;-79
2023/01/09 04:18:42;;;;;;;15.43;8.73;;;;;;;3.49;100.00;94667.19;5039186;28;20132;-79
2023/01/09 04:21:09;;;;;;;16.00;8.77;;;;;;;3.51;100.00;94669.59;5039686;28;20042;-78
2023/01/09 04:23:36;;;;;;;12.25;7.68;;;;;;;3.53;100.00;94678.13;5034428;28;20699;-78
2023/01/09 04:26:04;;;;;;;14.90;9.10;;;;;;;3.51;100.00;94675.75;5042437;28;20045;-79
2023/01/09 04:28:30;;;;;;;13.23;7.65;;;;;;;3.53;100.00;94675.44;5041619;28;20048;-79
2023/01/09 04:30:57;;;;;;;13.95;9.13;;;;;;;3.54;100.00;94671.63;5041971;28;20049;-78
2023/01/09 04:33:23;;;;;;;14.77;8.63;;;;;;;3.59;100.00;94671.47;5037748;28;20044;-79
2023/01/09 04:35:50;;;;;;;16.70;7.95;;;;;;;3.64;100.00;94668.63;5047373;28;20382;-78
2023/01/09 04:38:17;;;;;;;13.00;7.80;;;;;;;3.65;100.00;94676.44;5047181;28;20048;-78
2023/01/09 04:40:43;;;;;;;11.95;7.40;;;;;;;3.67;100.00;94678.78;5050481;28;20049;-78
2023/01/09 04:43:11;;;;;;;13.35;8.23;;;;;;;3.72;100.00;94696.69;5050107;28;20076;-79
2023/01/09 04:45:38;;;;;;;12.07;7.55;;;;;;;3.72;100.00;94708.25;5043905;28;20048;-79
2023/01/09 04:48:05;;;;;;;16.38;7.32;;;;;;;3.73;100.00;94715.22;5030299;28;20042;-79
2023/01/09 04:50:32;;;;;;;11.18;6.35;;;;;;;3.75;100.00;94723.75;5043955;28;20059;-79
2023/01/09 04:52:58;;;;;;;11.52;6.55;;;;;;;3.80;100.00;94718.22;5035570;28;20045;-78
2023/01/09 04:55:25;;;;;;;10.40;6.00;;;;;;;3.78;100.00;94717.75;5035020;28;20038;-78
2023/01/09 04:57:51;;;;;;;11.40;5.97;;;;;;;3.84;100.00;94727.25;5038646;28;20053;-78
2023/01/09 05:00:19;;;;;;;10.85;5.90;;;;;;;3.89;100.00;94721.72;5043692;28;20048;-78
2023/01/09 05:02:46;;;;;;;8.35;4.97;;;;;;;3.91;100.00;94711.44;5041326;28;20517;-78
2023/01/09 05:05:13;;;;;;;9.13;4.88;;;;;;;3.88;100.00;94722.84;5051284;28;20045;-78
2023/01/09 05:07:39;;;;;;;9.20;4.65;;;;;;;3.93;100.00;94719.22;5027077;28;20053;-78
2023/01/09 05:10:08;;;;;;;8.77;4.03;;;;;;;4.01;99.95;94725.69;5036101;28;20045;-79
2023/01/09 05:12:35;;;;;;;9.30;4.07;;;;;;;4.19;99.41;94740.78;5027332;28;20050;-78
2023/01/09 05:15:01;;;;;;;8.07;4.05;;;;;;;4.20;99.28;94750.44;5034482;28;20073;-79
2023/01/09 05:17:29;;;;;;;9.07;4.57;;;;;;;4.29;99.01;94761.22;5052519;28;20044;-78
2023/01/09 05:19:56;;;;;;;8.68;4.40;;;;;;;4.41;98.78;94766.78;5036598;28;20049;-80
2023/01/09 05:22:22;;;;;;;5.50;3.03;;;;;;;4.49;98.55;94767.88;5033900;28;20383;-77
2023/01/09 05:24:49;;;;;;;6.28;3.38;;;;;;;4.58;98.15;94779.44;5031798;28;20045;-80
2023/01/09 05:27:15;;;;;;;15.73;5.00;;;;;;;4.67;97.83;94786.41;5034552;28;20501;-78
2023/01/09 05:29:42;;;;;;;8.57;3.38;;;;;;;4.74;96.89;94788.63;5040288;28;20049;-80
2023/01/09 05:32:08;;;;;;;7.32;3.00;;;;;;;4.80;97.05;94789.25;5035188;28;20061;-79
2023/01/09 05:34:36;;;;;;;11.70;3.53;;;;;;;4.81;96.84;94785.47;5027395;28;20449;-80
2023/01/09 05:37:03;;;;;;;5.60;2.53;;;;;;;4.83;97.42;94789.41;5033197;28;20045;-79
2023/01/09 05:39:29;;;;;;;7.10;3.10;;;;;;;4.87;97.00;94801.16;5035676;28;20049;-80
2023/01/09 05:41:55;;;;;;;9.30;3.25;;;;;;;4.92;96.90;94803.69;5033728;28;20045;-78
2023/01/09 05:44:22;;;;;;;5.95;2.53;;;;;;;4.92;97.13;94813.69;5037437;28;20519;-78
2023/01/09 05:46:49;;;;;;;9.80;3.03;;;;;;;4.97;97.01;94816.22;5039290;28;20045;-79
2023/01/09 05:49:15;;;;;;;10.45;3.05;;;;;;;5.11;96.29;94824.91;5032897;28;20505;-80
2023/01/09 05:51:43;;;;;;;8.27;2.50;;;;;;;5.32;94.95;94816.94;5034091;28;20038;-81
2023/01/09 05:54:10;;;;;;;9.93;2.70;;;;;;;5.49;94.11;94833.09;5038401;28;20128;-82
2023/01/09 05:56:36;;;;;;;10.10;2.20;;;;;;;5.56;93.67;94837.19;5037020;28;20409;-80
2023/01/09 05:59:03;;;;;;;10.63;2.35;;;;;;;5.64;93.69;94839.88;5041163;28;20048;-81
2023/01/09 06:01:29;;;;;;;8.45;1.90;;;;;;;5.74;92.63;94836.00;5041622;28;20065;-80
2023/01/09 06:03:56;;;;;;;12.43;2.20;;;;;;;5.76;93.18;94852.69;5033391;28;20049;-81
2023/01/09 06:06:23;;;;;;;0.80;0.55;;;;;;;5.90;91.49;94847.88;5041183;28;20053;-82
2023/01/09 06:08:50;;;;;;;1.30;0.70;;;;;;;5.98;90.30;94848.97;5048870;28;20128;-78
2023/01/09 06:11:17;;;;;;;0.43;0.40;;;;;;;5.97;90.02;94859.00;5034138;28;20049;-79
2023/01/09 06:13:43;;;;;;;0.38;0.35;;;;;;;6.00;88.92;94871.88;5048215;28;20051;-80
2023/01/09 06:16:10;;;;;;;0.30;0.30;;;;;;;5.98;89.04;94860.56;5034496;28;20057;-81
2023/01/09 06:18:37;;;;;;;0.30;0.30;;;;;;;5.96;89.13;94860.13;5031529;28;20049;-80
2023/01/09 06:21:03;;;;;;;1.00;0.50;;;;;;;5.94;89.20;94864.25;5033470;28;20073;-79
2023/01/09 06:23:30;;;;;;;7.13;1.15;;;;;;;5.92;88.83;94878.09;5029810;28;20180;-79
2023/01/09 06:25:58;;;;;;;4.20;0.95;;;;;;;5.84;89.81;94886.19;5041111;28;20052;-79
2023/01/09 06:28:25;;;;;;;9.73;1.42;;;;;;;5.67;91.97;94887.03;5032739;28;20041;-82
2023/01/09 06:30:52;;;;;;;1.90;0.60;;;;;;;5.58;92.80;94883.56;5032551;28;20515;-81
2023/01/09 06:33:18;;;;;;;1.10;0.60;;;;;;;5.48;93.37;94896.31;5032641;28;20260;-82
2023/01/09 06:35:45;;;;;;;0.50;0.20;;;;;;;5.36;94.94;94906.94;5034242;28;20540;-81
2023/01/09 06:38:12;;;;;;;0.50;0.30;;;;;;;5.37;94.43;94911.22;5035228;28;20069;-82
2023/01/09 06:40:38;;;;;;;0.90;0.35;;;;;;;5.29;94.63;94911.25;5032716;28;20049;-78
2023/01/09 06:43:07;;;;;;;0.80;0.38;;;;;;;5.36;93.17;94911.56;5029700;28;20049;-79
2023/01/09 06:45:33;;;;;;;2.92;0.40;;;;;;;5.41;92.56;94928.38;5036312;28;20386;-79
2023/01/09 06:48:00;;;;;;;1.02;0.50;;;;;;;5.46;91.00;94930.91;5033870;28;20045;-82
2023/01/09 06:50:27;;;;;;;0.93;0.50;;;;;;;5.70;84.38;94937.72;5043656;28;21082;-77
2023/01/09 06:52:53;;;;;;;0.30;0.30;;;;;;;5.81;82.85;94930.84;5032023;28;20706;-77
2023/01/09 06:55:20;;;;;;;0.30;0.20;;;;;;;5.77;82.77;94929.91;5031227;28;20045;-78
2023/01/09 06:57:46;;;;;;;0.52;0.20;;;;;;;5.75;82.19;94932.16;5035301;28;20056;-78
2023/01/09 07:00:15;;;;;;;0.40;0.30;;;;;;;5.74;82.18;94941.34;5040231;28;20052;-78
2023/01/09 07:02:42;;;;;;;0.57;0.25;;;;;;;5.70;82.46;94951.22;5032179;28;20053;-79
2023/01/09 07:05:10;;;;;;;2.85;0.57;;;;;;;5.68;82.97;94948.03;5028728;28;20053;-77
2023/01/09 07:07:37;;;;;;;0.30;0.20;;;;;;;5.72;81.49;94954.38;5026659;28;20056;-79
2023/01/09 07:10:04;;;;;;;1.95;0.30;;;;;;;5.68;83.02;94964.22;5030888;28;20408;-79
2023/01/09 07:12:30;;;;;;;1.88;0.32;;;;;;;5.63;82.09;94962.50;5028725;28;20061;-78
2023/01/09 07:14:57;;;;;;;0.70;0.35;;;;;;;5.49;83.52;94972.69;5030480;28;20045;-79
2023/01/09 07:17:25;;;;;;;0.93;0.30;;;;;;;5.46;83.37;94979.50;5033030;28;20052;-79
2023/01/09 07:19:51;;;;;;;1.48;0.30;;;;;;;5.45;82.81;94971.75;5034806;28;20460;-78
2023/01/09 07:22:19;;;;;;;0.30;0.20;;;;;;;5.47;82.74;94974.91;5029008;28;20057;-78
2023/01/09 07:24:46;;;;;;;0.47;0.28;;;;;;;5.35;84.11;94986.34;5030996;28;20049;-78
2023/01/09 07:27:13;;;;;;;1.90;0.50;;;;;;;5.38;83.64;94991.13;5030554;28;20052;-78
2023/01/09 07:29:39;;;;;;;0.65;0.40;;;;;;;5.41;83.33;95003.16;5031090;28;20056;-80
2023/01/09 07:32:06;;;;;;;1.70;0.85;;;;;;;5.38;83.34;95004.63;5030391;28;20049;-77
2023/01/09 07:34:34;;;;;;;1.35;0.60;;;;;;;5.33;84.48;95009.38;5031441;28;20077;-78
2023/01/09 07:37:00;;;;;;;0.60;0.32;;;;;;;5.32;85.24;95010.47;5031131;28;20049;-79
2023/01/09 07:39:27;;;;;;;0.95;0.20;;;;;;;5.25;85.67;95016.34;5037145;28;20038;-78
2023/01/09 07:41:53;;;;;;;0.30;0.20;;;;;;;5.17;87.17;95023.34;5030847;28;20042;-78
2023/01/09 07:44:20;;;;;;;3.30;0.50;;;;;;;5.06;87.94;95032.03;5030223;28;20046;-78
2023/01/09 07:46:47;;;;;;;2.25;0.73;;;;;;;4.94;89.15;95044.22;5031405;28;20057;-79
2023/01/09 07:49:13;;;;;;;0.95;0.40;;;;;;;4.81;91.71;95045.16;5029999;28;20559;-79
2023/01/09 07:51:43;;;;;;;0.20;0.17;;;;;;;4.70;93.09;95049.25;5030760;28;20049;-79
2023/01/09 07:54:11;;;;;;;2.40;0.85;;;;;;;4.61;95.02;95051.13;5030144;28;20076;-78
2023/01/09 07:56:38;;;;;;;0.32;0.30;;;;;;;4.56;95.82;95062.03;5030502;28;20556;-78
2023/01/09 07:59:04;;;;;;;0.20;0.20;;;;;;;4.55;96.11;95061.25;5029815;28;20045;-77
2023/01/09 08:01:31;;;;;;;0.50;0.40;;;;;;;4.52;96.23;95066.47;5030743;28;20056;-78
2023/01/09 08:03:58;;;;;;;1.65;0.85;;;;;;;4.54;95.42;95066.94;5030659;28;20053;-78
2023/01/09 08:06:24;;;;;;;1.10;0.32;;;;;;;4.49;97.06;95064.38;5022043;28;20041;-78
2023/01/09 08:08:52;;;;;;;1.23;0.43;;;;;;;4.40;97.41;95067.84;5030330;28;20076;-77
2023/01/09 08:11:18;;;;;;;0.60;0.30;;;;;;;4.47;95.73;95066.59;5030015;28;20049;-79
2023/01/09 08:13:45;;;;;;;0.20;0.20;;;;;;;4.45;95.26;95080.38;5031415;28;20121;-81
2023/01/09 08:16:11;;;;;;;0.35;0.20;;;;;;;4.48;95.55;95084.34;5031842;28;20049;-79
2023/01/09 08:18:38;;;;;;;0.20;0.20;;;;;;;4.52;94.74;95090.72;5039790;28;20050;-78
2023/01/09 08:21:05;;;;;;;7.90;1.65;;;;;;;4.54;94.68;95099.28;5031409;28;20060;-78
2023/01/09 08:23:31;;;;;;;0.43;0.38;;;;;;;4.56;94.34;95107.88;5031258;28;20060;-78
2023/01/09 08:25:59;;;;;;;9.27;1.80;;;;;;;4.57;93.86;95110.25;5030584;28;20037;-79
2023/01/09 08:28:26;;;;;;;12.00;1.80;;;;;;;4.58;93.24;95111.03;5029966;28;20037;-78
2023/01/09 08:30:52;;;;;;;8.27;1.35;;;;;;;4.58;93.00;95119.13;5030553;28;20461;-77
2023/01/09 08:33:19;;;;;;;12.10;1.67;;;;;;;4.59;92.67;95112.63;5029767;28;20053;-79
2023/01/09 08:35:45;;;;;;;8.07;1.30;;;;;;;4.63;90.63;95124.38;5030481;28;20047;-78
2023/01/09 08:38:12;;;;;;;16.17;2.20;;;;;;;4.65;88.70;95122.19;5029412;28;20045;-78
2023/01/09 08:40:39;;;;;;;12.63;1.63;;;;;;;4.58;86.22;95129.91;5030301;28;20046;-80
2023/01/09 08:48:37;;;;;;;0.88;0.43;;;;;;;4.37;84.26;95152.00;5023792;28;20520;-78
2023/01/09 08:51:04;;;;;;;5.63;1.33;;;;;;;4.33;84.92;95152.91;5028726;28;20041;-78
2023/01/09 08:53:30;;;;;;;4.57;0.65;;;;;;;4.24;86.03;95147.47;5030391;28;20045;-80
2023/01/09 08:55:58;;;;;;;0.88;0.47;;;;;;;4.09;88.76;95153.25;5030094;28;20508;-80
2023/01/09 08:58:26;;;;;;;4.72;1.30;;;;;;;3.93;92.64;95142.81;5029401;28;20052;-79
2023/01/09 09:00:53;;;;;;;8.88;1.50;;;;;;;3.89;94.10;95155.28;5030184;28;20416;-78
2023/01/09 09:03:20;;;;;;;11.35;1.80;;;;;;;3.84;94.31;95144.63;5029809;28;20056;-78
2023/01/09 09:05:47;;;;;;;14.68;1.98;;;;;;;3.86;94.47;95137.06;5029817;28;20053;-78
2023/01/09 09:08:14;;;;;;;13.63;2.25;;;;;;;3.88;95.33;95139.44;5029532;28;20068;-78
2023/01/09 09:10:41;;;;;;;14.35;2.17;;;;;;;3.94;95.12;95140.91;5029821;28;20053;-78
2023/01/09 09:13:07;;;;;;;8.70;1.45;;;;;;;3.98;95.33;95150.00;5030979;28;20410;-78
2023/01/09 09:15:36;;;;;;;11.45;1.50;;;;;;;4.01;95.13;95148.56;5036873;28;20413;-78
2023/01/09 09:18:05;;;;;;;13.07;2.00;;;;;;;4.03;95.76;95147.19;5029084;28;20513;-79
2023/01/09 09:20:34;;;;;;;10.73;1.67;;;;;;;4.06;94.59;95137.69;5029934;28;20128;-79
2023/01/09 09:23:01;;;;;;;14.63;2.00;;;;;;;4.12;93.74;95152.59;5029556;28;20046;-79
2023/01/09 09:25:28;;;;;;;9.05;1.33;;;;;;;4.17;92.24;95152.50;5029657;28;20536;-79
2023/01/09 09:27:55;;;;;;;9.98;1.63;;;;;;;4.21;91.53;95155.38;5029108;28;20122;-79
2023/01/09 09:30:23;;;;;;;11.13;1.77;;;;;;;4.27;90.85;95149.56;5028968;28;20099;-79
2023/01/09 09:32:50;;;;;;;8.05;1.15;;;;;;;4.35;90.27;95154.22;5029714;28;20045;-79
2023/01/09 09:35:19;;;;;;;17.40;2.53;;;;;;;4.37;89.22;95154.69;5029033;28;20059;-78
2023/01/09 09:37:53;;;;;;;9.35;1.35;;;;;;;4.41;89.26;95155.66;5029396;28;20042;-77
2023/01/09 09:40:31;;;;;;;1.27;0.70;;;;;;;4.45;88.81;95167.44;5029205;28;20386;-78
2023/01/09 09:46:20;;;;;;;8.88;1.40;;;;;;;4.58;86.25;95187.31;5026411;28;20052;-78
2023/01/09 09:48:51;;;;;;;10.10;1.67;;;;;;;4.60;84.18;95170.84;5029288;28;20053;-78
2023/01/09 09:51:40;;;;;;;10.02;1.67;;;;;;;4.69;83.58;95171.69;5028711;28;20057;-78
2023/01/09 09:54:13;;;;;;;15.02;2.35;;;;;;;4.80;83.45;95154.13;5028776;28;20408;-78
2023/01/09 09:56:50;;;;;;;8.82;1.67;;;;;;;4.83;80.27;95161.59;5029429;28;20049;-79
2023/01/09 09:59:20;;;;;;;8.93;1.38;;;;;;;4.86;80.19;95165.59;5028760;28;20045;-78
2023/01/09 10:01:53;;;;;;;5.13;0.93;;;;;;;4.89;78.67;95149.56;5030479;28;20413;-78
2023/01/09 10:04:25;;;;;;;9.90;1.42;;;;;;;4.93;77.00;95144.34;5032362;28;20054;-78
2023/01/09 10:06:57;;;;;;;15.73;2.13;;;;;;;4.98;75.04;95131.53;5032909;28;20049;-79
2023/01/09 10:09:41;;;;;;;10.23;1.60;;;;;;;4.96;74.90;95128.34;5023913;28;20048;-79
2023/01/09 10:12:17;;;;;;;2.20;0.82;;;;;;;4.96;73.55;95128.34;5026336;28;20053;-78
2023/01/09 10:14:44;;;;;;;13.85;1.80;;;;;;;4.99;71.95;95145.81;5032956;28;20053;-78
2023/01/09 10:17:23;;;;;;;25.45;3.13;;;;;;;5.02;71.04;95147.09;5032284;28;20060;-80
2023/01/09 10:20:14;;;;;;;12.77;1.67;;;;;;;5.06;72.03;95164.25;5032800;28;20045;-78
2023/01/09 10:22:51;;;;;;;12.98;1.90;;;;;;;5.17;70.93;95174.47;5026931;28;20417;-79
2023/01/09 10:25:26;;;;;;;13.93;1.92;;;;;;;5.13;69.55;95167.28;5040329;28;20072;-79
2023/01/09 10:28:08;;;;;;;15.32;2.15;;;;;;;5.12;70.19;95163.00;5032516;28;20137;-78
2023/01/09 10:30:42;;;;;;;1.50;0.40;;;;;;;5.15;69.48;95165.06;5026099;28;20128;-77
2023/01/09 10:33:20;;;;;;;1.13;0.38;;;;;;;5.12;70.18;95157.63;5031935;28;20069;-78
2023/01/09 10:36:14;;;;;;;5.18;0.85;;;;;;;5.11;70.26;95156.78;5032274;28;20042;-78
2023/01/09 10:38:45;;;;;;;8.95;1.23;;;;;;;5.14;71.23;95160.78;5032070;28;20049;-78
2023/01/09 10:41:17;;;;;;;3.50;0.63;;;;;;;5.14;71.29;95168.88;5048549;28;20511;-74
2023/01/09 10:43:49;;;;;;;8.00;1.30;;;;;;;5.16;71.93;95172.06;5032475;28;20053;-77
2023/01/09 10:46:20;;;;;;;7.05;1.35;;;;;;;5.16;70.13;95169.34;5031662;28;20108;-74
2023/01/09 10:48:51;;;;;;;14.00;1.92;;;;;;;5.18;71.55;95167.94;5031859;28;20068;-78
2023/01/09 10:51:23;;;;;;;15.98;2.30;;;;;;;5.16;70.82;95166.66;5031344;28;20053;-78
2023/01/09 10:53:52;;;;;;;12.27;1.70;;;;;;;5.18;70.07;95156.38;5032429;28;20041;-79
2023/01/09 10:56:23;;;;;;;14.40;2.13;;;;;;;5.19;69.39;95163.34;5039745;28;20072;-78
2023/01/09 10:58:50;;;;;;;18.50;2.05;;;;;;;5.21;69.73;95163.81;5039392;28;20052;-78
2023/01/09 11:01:20;;;;;;;17.98;2.47;;;;;;;5.22;69.83;95162.72;5032378;28;20037;-78
2023/01/09 11:03:47;;;;;;;10.38;1.52;;;;;;;5.21;70.52;95155.72;5032068;28;20049;-79
2023/01/09 11:06:21;;;;;;;10.82;1.92;;;;;;;5.21;70.84;95155.72;5031462;28;20049;-79
2023/01/09 11:08:51;;;;;;;15.55;2.10;;;;;;;5.32;70.65;95158.94;5031868;28;20057;-77
2023/01/09 11:11:33;;;;;;;23.40;3.22;;;;;;;5.27;70.62;95159.88;5031668;28;20052;-78
2023/01/09 11:14:05;;;;;;;16.57;2.33;;;;;;;5.26;71.26;95157.47;5040001;28;20414;-76
2023/01/09 11:16:32;;;;;;;11.60;2.08;;;;;;;5.26;71.04;95150.19;5036156;28;20040;-78
2023/01/09 11:19:01;;;;;;;1.67;0.77;;;;;;;5.30;70.94;95153.06;5035144;28;20072;-78
2023/01/09 11:21:34;;;;;;;19.15;2.40;;;;;;;5.32;71.39;95151.63;5023692;28;20120;-78
2023/01/09 11:24:20;;;;;;;;;;;;;;;5.39;71.17;95151.97;5040423;28;20041;-79
2023/01/09 11:26:47;;;;;;;13.60;2.10;;;;;;;5.55;71.00;95148.84;5039993;28;19951;-77
2023/01/09 11:29:15;;;;;;;15.40;2.15;;;;;;;5.50;70.79;95158.66;5030803;28;20056;-76
2023/01/09 11:31:50;;;;;;;11.00;1.83;;;;;;;5.59;70.81;95160.59;5031488;28;20053;-76
2023/01/09 11:34:19;;;;;;;12.48;1.85;;;;;;;5.64;70.00;95163.94;5030799;28;20049;-76
2023/01/09 11:36:48;;;;;;;5.60;1.23;;;;;;;5.75;69.16;95169.84;5032342;28;20077;-76
2023/01/09 11:39:23;;;;;;;9.00;1.63;;;;;;;5.72;67.85;95170.47;5030915;28;20046;-76
2023/01/09 11:41:54;;;;;;;12.52;1.60;;;;;;;5.77;68.03;95167.59;5027087;28;20456;-76
2023/01/09 11:44:21;;;;;;;8.90;1.65;;;;;;;5.85;66.71;95166.03;5039214;28;20061;-76
2023/01/09 11:46:47;;;;;;;9.48;1.23;;;;;;;5.93;66.35;95163.34;5032018;28;20050;-76
2023/01/09 11:49:23;;;;;;;15.77;2.35;;;;;;;5.83;66.41;95158.22;5033296;28;20045;-76
2023/01/09 11:52:19;;;;;;;15.60;2.30;;;;;;;5.81;66.99;95165.88;5035729;28;20049;-77
2023/01/09 11:54:51;;;;;;;8.98;1.50;;;;;;;5.85;66.86;95158.72;5024384;28;20512;-76